Time;durP1;ratioP1;P1;durP2;ratioP2;P2;SDS_P1;SDS_P2;PMS_P1;PMS_P2;Temp;Humidity;BMP_temperature;BMP_pressure;BME280_temperature;BME280_humidity;BME280_pressure;Samples;Min_cycle;Max_cycle;Signal;HPM_P1;HPM_P2
2024/04/29 00:00:41;;;;;;;2.05;1.30;;;10.40;59.20;;;5.71;100.00;95738.50;5265507;27;20092;-53
2024/04/29 00:03:07;;;;;;;1.70;1.50;;;10.30;59.20;;;5.68;100.00;95740.81;5259459;27;20009;-56
2024/04/29 00:05:33;;;;;;;1.50;1.20;;;10.30;59.30;;;5.65;100.00;95733.34;5261396;27;20534;-52
2024/04/29 00:07:59;;;;;;;3.58;1.40;;;10.30;59.40;;;5.60;100.00;95735.84;5280569;26;20021;-51
2024/04/29 00:10:25;;;;;;;1.60;1.20;;;10.30;59.40;;;5.57;100.00;95726.53;5270326;26;20025;-53
2024/04/29 00:12:52;;;;;;;2.03;1.30;;;10.20;59.40;;;5.55;100.00;95737.34;5266641;27;20016;-51
2024/04/29 00:15:18;;;;;;;1.90;1.17;;;10.20;59.50;;;5.53;100.00;95733.31;5256939;26;20489;-54
2024/04/29 00:17:44;;;;;;;2.33;1.35;;;10.10;59.60;;;5.49;100.00;95746.19;5266786;27;20016;-51
2024/04/29 00:20:10;;;;;;;1.58;1.20;;;10.10;59.70;;;5.45;100.00;95742.41;5247557;26;20025;-50
2024/04/29 00:22:36;;;;;;;3.65;1.40;;;10.10;59.80;;;5.47;100.00;95745.59;5275863;26;20041;-50
2024/04/29 00:25:02;;;;;;;2.78;1.25;;;10.10;59.90;;;5.45;100.00;95746.84;5252182;26;20089;-49
2024/04/29 00:27:28;;;;;;;2.53;1.40;;;10.10;60.00;;;5.46;100.00;95751.13;5271820;27;20046;-49
2024/04/29 00:29:53;;;;;;;1.75;1.15;;;10.10;60.00;;;5.44;100.00;95755.81;5268504;27;20354;-50
2024/04/29 00:32:19;;;;;;;2.63;1.35;;;10.10;60.10;;;5.44;100.00;95750.53;5262528;27;20006;-50
2024/04/29 00:34:45;;;;;;;4.50;1.50;;;10.00;60.00;;;5.43;100.00;95744.47;5264769;27;20085;-51
2024/04/29 00:37:12;;;;;;;3.78;1.15;;;10.00;60.10;;;5.43;100.00;95746.31;5257983;27;20359;-51
2024/04/29 00:39:39;;;;;;;1.85;1.20;;;10.00;60.20;;;5.45;100.00;95746.84;5277254;26;20018;-48
2024/04/29 00:42:05;;;;;;;2.75;1.45;;;10.00;60.30;;;5.43;100.00;95744.47;5267547;27;20001;-50
2024/04/29 00:44:31;;;;;;;1.40;1.27;;;10.00;60.30;;;5.46;100.00;95736.09;5267110;26;20022;-50
2024/04/29 00:47:00;;;;;;;2.80;1.40;;;10.10;60.50;;;5.50;100.00;95739.06;5262744;27;20503;-52
2024/04/29 00:49:29;;;;;;;2.00;1.40;;;10.00;60.60;;;5.53;100.00;95738.59;5301455;26;20017;-50
2024/04/29 00:51:56;;;;;;;2.20;1.38;;;10.10;60.80;;;5.52;100.00;95740.44;5265427;27;20067;-52
2024/04/29 00:54:22;;;;;;;1.38;1.10;;;10.10;60.70;;;5.54;100.00;95735.72;5265993;27;20014;-50
2024/04/29 00:56:48;;;;;;;1.38;1.25;;;10.10;60.70;;;5.56;100.00;95738.94;5276924;26;20023;-49
2024/04/29 00:59:15;;;;;;;2.05;1.33;;;10.10;60.80;;;5.59;100.00;95739.53;5278633;26;20683;-54
2024/04/29 01:01:42;;;;;;;2.70;1.20;;;10.20;61.00;;;5.61;100.00;95742.75;5272651;26;20372;-50
2024/04/29 01:04:09;;;;;;;2.45;1.38;;;10.20;61.00;;;5.62;100.00;95736.44;5265427;27;20026;-50
2024/04/29 01:06:39;;;;;;;1.65;1.10;;;10.20;61.10;;;5.62;100.00;95734.59;5275185;27;20013;-52
2024/04/29 01:09:12;;;;;;;1.88;1.35;;;10.20;61.30;;;5.65;100.00;95735.97;5272173;27;20002;-53
2024/04/29 01:11:41;;;;;;;1.88;1.27;;;10.20;61.10;;;5.66;100.00;95737.59;5268962;27;20029;-50
2024/04/29 01:14:08;;;;;;;1.60;1.30;;;10.20;61.20;;;5.66;100.00;95741.03;5269160;27;20450;-52
2024/04/29 01:16:35;;;;;;;1.40;1.27;;;10.20;61.20;;;5.70;100.00;95746.66;5268359;27;20013;-54
2024/04/29 01:19:02;;;;;;;1.92;1.20;;;10.30;61.50;;;5.71;100.00;95748.28;5272289;27;20478;-49
2024/04/29 01:21:28;;;;;;;1.40;1.10;;;10.30;61.50;;;5.73;100.00;95748.84;5272328;27;20025;-53
2024/04/29 01:23:54;;;;;;;2.42;1.30;;;10.30;61.60;;;5.73;100.00;95757.56;5272175;26;20096;-56
2024/04/29 01:26:20;;;;;;;1.10;0.95;;;10.30;61.60;;;5.73;100.00;95754.13;5268723;27;20022;-55
2024/04/29 01:28:45;;;;;;;1.23;1.08;;;10.30;61.50;;;5.75;100.00;95747.56;5264150;26;20065;-51
2024/04/29 01:31:11;;;;;;;3.20;1.52;;;10.30;61.50;;;5.78;100.00;95756.88;5259045;27;20010;-53
2024/04/29 01:33:37;;;;;;;1.42;1.10;;;10.30;61.50;;;5.79;100.00;95756.66;5263307;26;20065;-54
2024/04/29 01:36:03;;;;;;;1.63;1.17;;;10.40;61.50;;;5.79;100.00;95761.13;5276484;26;20014;-54
2024/04/29 01:38:29;;;;;;;1.52;1.13;;;10.40;61.50;;;5.78;100.00;95768.25;5259967;27;20007;-56
2024/04/29 01:40:55;;;;;;;1.92;1.13;;;10.40;61.50;;;5.79;100.00;95771.72;5270144;26;20114;-51
2024/04/29 01:43:21;;;;;;;0.85;0.82;;;10.40;61.50;;;5.76;100.00;95775.59;5252050;27;20021;-52
2024/04/29 01:45:46;;;;;;;1.20;1.10;;;10.40;61.40;;;5.76;100.00;95772.16;5264685;26;20010;-50
2024/04/29 01:48:12;;;;;;;4.45;1.13;;;10.40;61.40;;;5.74;100.00;95777.69;5272675;27;20485;-54
2024/04/29 01:50:38;;;;;;;1.15;1.00;;;10.40;61.30;;;5.72;100.00;95778.94;5259060;26;20022;-51
2024/04/29 01:53:04;;;;;;;1.73;1.10;;;10.40;61.30;;;5.64;100.00;95781.91;5271287;27;20026;-53
2024/04/29 01:55:30;;;;;;;1.75;1.15;;;10.40;61.40;;;5.62;100.00;95776.06;5251937;27;20115;-50
2024/04/29 01:57:55;;;;;;;1.38;1.17;;;10.30;61.40;;;5.67;100.00;95778.81;5262899;27;20023;-54
2024/04/29 02:00:21;;;;;;;2.03;1.27;;;10.30;61.50;;;5.65;100.00;95771.13;5262724;27;20377;-52
2024/04/29 02:02:47;;;;;;;2.33;1.42;;;10.30;61.50;;;5.61;100.00;95767.34;5265024;27;20089;-54
2024/04/29 02:05:13;;;;;;;2.00;1.30;;;10.20;61.50;;;5.59;100.00;95774.69;5260166;27;20509;-52
2024/04/29 02:07:39;;;;;;;2.42;1.20;;;10.20;61.60;;;5.56;100.00;95777.78;5261495;26;20420;-51
2024/04/29 02:10:05;;;;;;;2.20;1.40;;;10.20;62.40;;;5.52;100.00;95782.72;5268092;27;20007;-56
2024/04/29 02:12:31;;;;;;;1.67;1.25;;;10.20;61.70;;;5.48;100.00;95781.56;5265062;27;20017;-57
2024/04/29 02:14:57;;;;;;;1.02;0.93;;;10.10;61.70;;;5.39;100.00;95784.75;5273694;26;20024;-55
2024/04/29 02:17:23;;;;;;;1.90;1.10;;;10.10;61.80;;;5.32;100.00;95783.00;5268264;27;20017;-55
2024/04/29 02:19:48;;;;;;;1.58;1.30;;;10.00;61.70;;;5.30;100.00;95784.28;5271308;26;20080;-56
2024/04/29 02:22:14;;;;;;;2.80;1.45;;;10.00;61.80;;;5.27;100.00;95785.56;5247608;27;20017;-57
2024/04/29 02:24:40;;;;;;;2.70;1.60;;;9.90;61.70;;;5.21;100.00;95786.44;5265438;26;20009;-54
2024/04/29 02:27:06;;;;;;;3.05;1.48;;;9.90;61.80;;;5.19;100.00;95785.84;5269122;27;20009;-56
2024/04/29 02:29:32;;;;;;;2.25;1.48;;;9.90;61.90;;;5.15;100.00;95790.00;5260988;27;20021;-53
2024/04/29 02:31:57;;;;;;;1.27;1.17;;;9.80;62.00;;;5.15;100.00;95787.34;5269832;27;20016;-54
2024/04/29 02:34:23;;;;;;;1.48;1.38;;;9.80;62.10;;;5.14;100.00;95788.38;5261303;27;20034;-54
2024/04/29 02:36:49;;;;;;;7.93;4.38;;;9.80;62.10;;;5.12;100.00;95787.81;5263560;27;20020;-57
2024/04/29 02:39:15;;;;;;;2.53;2.03;;;9.70;62.10;;;5.09;100.00;95782.97;5261201;27;20473;-56
2024/04/29 02:41:40;;;;;;;2.20;1.60;;;9.70;62.20;;;5.05;100.00;95793.16;5270484;27;20091;-55
2024/04/29 02:44:06;;;;;;;2.17;1.60;;;9.70;62.20;;;5.03;100.00;95789.13;5269104;27;20005;-56
2024/04/29 02:46:32;;;;;;;1.90;1.27;;;9.60;62.20;;;4.95;100.00;95786.81;5262578;27;20086;-55
2024/04/29 02:48:58;;;;;;;1.98;1.73;;;9.60;62.30;;;4.91;100.00;95793.56;5253515;27;20031;-56
2024/04/29 02:51:24;;;;;;;3.13;1.70;;;9.60;62.40;;;4.91;100.00;95790.94;5253328;27;20011;-48
2024/04/29 02:53:49;;;;;;;3.17;2.00;;;9.60;62.40;;;4.84;100.00;95789.19;5273240;26;20091;-51
2024/04/29 02:56:15;;;;;;;3.17;2.03;;;9.50;62.40;;;4.82;100.00;95791.22;5247281;27;20359;-55
2024/04/29 02:58:41;;;;;;;3.03;2.30;;;9.50;62.50;;;4.81;100.00;95789.63;5268141;26;20020;-56
2024/04/29 03:01:07;;;;;;;2.50;2.30;;;9.50;62.60;;;4.81;100.00;95778.28;5262511;27;20100;-54
2024/04/29 03:03:33;;;;;;;3.72;2.50;;;9.40;62.80;;;4.78;100.00;95779.50;5271308;27;20488;-56
2024/04/29 03:05:59;;;;;;;6.03;2.75;;;9.40;62.90;;;4.77;100.00;95785.03;5267425;26;20075;-51
2024/04/29 03:08:25;;;;;;;4.80;2.38;;;9.40;63.00;;;4.73;100.00;95786.47;5253710;27;20099;-50
2024/04/29 03:10:51;;;;;;;3.33;2.28;;;9.40;63.10;;;4.73;100.00;95789.94;5269816;27;20438;-50
2024/04/29 03:13:16;;;;;;;3.97;2.30;;;9.40;63.20;;;4.68;100.00;95786.34;5263317;27;20011;-52
2024/04/29 03:15:42;;;;;;;2.70;2.00;;;9.30;63.10;;;4.64;100.00;95778.09;5265603;27;20020;-51
2024/04/29 03:18:08;;;;;;;2.83;2.00;;;9.30;63.10;;;4.60;100.00;95777.69;5270332;27;20080;-54
2024/04/29 03:20:34;;;;;;;3.85;2.40;;;9.30;63.10;;;4.56;100.00;95773.91;5259372;27;20516;-57
2024/04/29 03:22:59;;;;;;;3.97;2.85;;;9.30;63.10;;;4.53;100.00;95765.63;5263603;26;20022;-56
2024/04/29 03:25:25;;;;;;;4.78;3.08;;;9.20;63.10;;;4.52;100.00;95766.66;5257267;27;20028;-55
2024/04/29 03:27:51;;;;;;;4.75;2.88;;;9.20;63.30;;;4.50;100.00;95776.63;5268395;26;20011;-52
2024/04/29 03:30:17;;;;;;;5.60;2.90;;;9.10;63.30;;;4.47;100.00;95777.06;5253598;27;20015;-52
2024/04/29 03:32:43;;;;;;;4.55;2.55;;;9.20;63.50;;;4.41;100.00;95770.84;5265782;26;20039;-53
2024/04/29 03:35:09;;;;;;;3.65;2.60;;;9.10;63.50;;;4.38;100.00;95772.06;5272588;27;20017;-51
2024/04/29 03:37:34;;;;;;;4.38;3.10;;;9.10;63.50;;;4.36;100.00;95768.06;5266582;27;21638;-49
2024/04/29 03:40:00;;;;;;;4.13;3.03;;;9.10;63.60;;;4.34;100.00;95767.47;5267817;27;20079;-55
2024/04/29 03:42:26;;;;;;;4.75;3.20;;;9.00;63.70;;;4.33;100.00;95765.88;5285043;27;20088;-51
2024/04/29 03:44:52;;;;;;;4.72;3.50;;;9.00;63.80;;;4.35;100.00;95766.44;5279633;27;20019;-55
2024/04/29 03:47:18;;;;;;;5.28;3.45;;;9.00;63.90;;;4.37;100.00;95769.66;5292456;27;20170;-50
2024/04/29 03:49:43;;;;;;;6.22;3.45;;;9.00;64.10;;;4.36;100.00;95760.16;5282545;26;20092;-50
2024/04/29 03:52:10;;;;;;;4.00;3.10;;;9.00;64.10;;;4.34;100.00;95757.72;5283087;26;20009;-50
2024/04/29 03:54:35;;;;;;;4.85;3.35;;;9.00;64.20;;;4.33;100.00;95758.75;5288717;27;20021;-51
2024/04/29 03:57:01;;;;;;;3.85;3.13;;;8.90;64.10;;;4.32;100.00;95758.97;5306115;26;20036;-53
2024/04/29 03:59:27;;;;;;;6.53;3.58;;;9.00;64.10;;;4.28;100.00;95768.34;5285409;27;20013;-55
2024/04/29 04:01:53;;;;;;;3.45;2.80;;;9.00;64.10;;;4.23;100.00;95761.13;5282247;27;20006;-52
2024/04/29 04:04:19;;;;;;;4.65;3.15;;;8.90;64.10;;;4.20;100.00;95756.28;5270486;27;20107;-53
2024/04/29 04:06:44;;;;;;;5.95;3.75;;;8.90;64.10;;;4.16;100.00;95761.16;5290742;26;20005;-50
2024/04/29 04:11:44;;;;;;;5.05;3.72;;;8.90;64.20;;;4.13;100.00;95756.31;5263560;27;20006;-52
2024/04/29 04:14:10;;;;;;;6.28;3.47;;;8.90;64.10;;;4.16;100.00;95755.88;5267117;27;20020;-52
2024/04/29 04:16:35;;;;;;;7.28;3.75;;;8.90;64.20;;;4.15;100.00;95764.03;5267412;27;20475;-52
2024/04/29 04:19:01;;;;;;;8.90;3.72;;;8.90;64.10;;;4.13;100.00;95758.16;5268232;27;20360;-48
2024/04/29 04:21:27;;;;;;;4.97;3.92;;;8.90;64.20;;;4.17;100.00;95756.72;5267724;27;20028;-51
2024/04/29 04:23:53;;;;;;;5.30;3.72;;;8.80;64.10;;;4.15;100.00;95762.19;5305161;26;20028;-50
2024/04/29 04:26:19;;;;;;;6.40;4.30;;;8.90;64.20;;;4.16;100.00;95763.81;5267968;27;20005;-53
2024/04/29 04:28:44;;;;;;;5.55;3.70;;;8.90;64.30;;;4.17;100.00;95764.63;5277324;27;20016;-50
2024/04/29 04:31:11;;;;;;;6.38;3.97;;;8.90;64.40;;;4.16;100.00;95758.53;5272322;27;20087;-49
2024/04/29 04:33:37;;;;;;;5.25;4.13;;;8.90;64.40;;;4.15;100.00;95762.19;5276933;27;20115;-50
2024/04/29 04:36:04;;;;;;;5.40;4.00;;;8.90;64.50;;;4.20;100.00;95756.28;5299412;26;20009;-51
2024/04/29 04:38:32;;;;;;;6.38;4.43;;;8.90;64.60;;;4.22;100.00;95758.69;5277495;27;20020;-48
2024/04/29 04:40:58;;;;;;;4.95;4.00;;;8.90;64.70;;;4.25;100.00;95761.69;5275213;27;20021;-49
2024/04/29 04:43:24;;;;;;;8.23;3.97;;;9.00;64.70;;;4.24;100.00;95773.28;5271664;27;20021;-49
2024/04/29 04:45:49;;;;;;;9.52;4.70;;;9.10;64.70;;;4.28;100.00;95763.88;5276222;27;20405;-47
2024/04/29 04:48:15;;;;;;;5.90;4.53;;;9.10;65.50;;;4.34;100.00;95768.28;5275217;27;20024;-50
2024/04/29 04:50:41;;;;;;;5.72;3.65;;;9.10;64.70;;;4.40;100.00;95772.66;5275882;27;20013;-50
2024/04/29 04:53:07;;;;;;;5.03;4.30;;;9.20;64.80;;;4.43;100.00;95768.78;5277780;27;20553;-50
2024/04/29 04:55:33;;;;;;;5.53;4.18;;;9.30;64.90;;;4.54;100.00;95759.31;5263934;27;20434;-49
2024/04/29 04:57:58;;;;;;;5.00;4.10;;;9.40;65.00;;;4.62;100.00;95774.84;5277133;27;20005;-47
2024/04/29 05:00:24;;;;;;;7.88;4.97;;;9.50;65.00;;;4.72;100.00;95769.03;5269369;26;20016;-51
2024/04/29 05:02:50;;;;;;;7.75;4.32;;;9.60;65.00;;;4.84;100.00;95775.97;5273383;27;20091;-53
2024/04/29 05:05:16;;;;;;;7.40;4.00;;;9.70;65.00;;;4.94;100.00;95764.09;5271046;27;20033;-55
2024/04/29 05:07:41;;;;;;;7.10;3.92;;;9.80;65.10;;;5.06;100.00;95763.09;5274236;27;20006;-50
2024/04/29 05:10:07;;;;;;;5.72;4.10;;;10.00;65.10;;;5.20;100.00;95763.72;5299599;26;20459;-51
2024/04/29 05:12:33;;;;;;;8.75;4.18;;;10.10;65.00;;;5.33;100.00;95768.00;5273179;26;20400;-52
2024/04/29 05:14:59;;;;;;;4.78;4.00;;;10.20;65.00;;;5.48;100.00;95767.53;5273902;27;20250;-50
2024/04/29 05:17:24;;;;;;;8.93;4.80;;;10.40;65.00;;;5.62;100.00;95770.78;5286953;27;20052;-50
2024/04/29 05:19:50;;;;;;;5.35;4.30;;;10.60;65.20;;;5.77;100.00;95766.66;5273062;27;20013;-52
2024/04/29 05:22:16;;;;;;;4.18;3.50;;;10.70;65.10;;;5.93;100.00;95770.50;5282510;27;20024;-52
2024/04/29 05:24:42;;;;;;;4.47;3.17;;;10.90;65.00;;;6.11;100.00;95763.44;5275545;27;20069;-49
2024/04/29 05:27:07;;;;;;;7.18;3.33;;;11.10;65.00;;;6.25;100.00;95762.97;5277120;27;20491;-50
2024/04/29 05:29:33;;;;;;;5.25;3.50;;;11.30;64.90;;;6.44;100.00;95774.22;5279205;26;20014;-50
2024/04/29 05:31:59;;;;;;;4.18;3.20;;;11.40;64.80;;;6.61;100.00;95787.56;5267993;27;20521;-50
2024/04/29 05:34:25;;;;;;;5.90;3.28;;;11.60;64.70;;;6.78;100.00;95787.59;5268870;26;20010;-51
2024/04/29 05:36:52;;;;;;;4.07;2.80;;;11.80;64.60;;;6.92;100.00;95788.91;5269094;27;20464;-50
2024/04/29 05:39:18;;;;;;;4.45;2.58;;;12.00;64.50;;;7.09;100.00;95788.19;5269054;27;20014;-48
2024/04/29 05:41:43;;;;;;;2.90;2.45;;;12.20;64.30;;;7.26;100.00;95786.34;5287930;27;20511;-51
2024/04/29 05:44:09;;;;;;;2.70;2.30;;;12.40;64.10;;;7.46;100.00;95799.19;5270251;27;20472;-48
2024/04/29 05:46:35;;;;;;;6.00;2.58;;;12.60;63.90;;;7.62;100.00;95797.59;5280224;27;20009;-51
2024/04/29 05:49:03;;;;;;;2.72;2.33;;;12.80;63.80;;;7.75;100.00;95805.22;5280681;27;20021;-50
2024/04/29 05:51:29;;;;;;;4.18;2.20;;;13.00;63.50;;;7.92;100.00;95812.38;5317149;26;20021;-50
2024/04/29 05:53:55;;;;;;;4.50;2.35;;;13.20;63.20;;;8.06;100.00;95814.44;5281442;27;20029;-52
2024/04/29 05:56:21;;;;;;;3.35;2.05;;;13.40;62.90;;;8.29;100.00;95810.00;5278293;27;20009;-52
2024/04/29 05:58:47;;;;;;;2.35;2.10;;;13.60;62.50;;;8.48;100.00;95814.00;5280112;27;20017;-49
2024/04/29 06:01:15;;;;;;;2.75;2.08;;;13.90;62.20;;;8.71;100.00;95798.88;5278629;26;20009;-47
2024/04/29 06:03:40;;;;;;;1.85;1.50;;;14.10;61.80;;;9.04;100.00;95796.09;5304212;26;20022;-49
2024/04/29 06:06:07;;;;;;;4.03;1.77;;;14.50;61.50;;;9.38;100.00;95795.91;5281940;26;20005;-55
2024/04/29 06:08:32;;;;;;;2.38;1.80;;;14.90;61.10;;;9.65;100.00;95800.38;5269884;26;20006;-54
2024/04/29 06:10:58;;;;;;;2.08;1.88;;;15.20;60.60;;;9.80;100.00;95808.50;5281756;26;20478;-55
2024/04/29 06:13:24;;;;;;;1.35;1.25;;;15.50;60.00;;;9.95;96.51;95805.16;5283858;27;20009;-55
2024/04/29 06:15:50;;;;;;;2.45;1.25;;;15.80;59.40;;;10.19;96.00;95794.97;5278496;27;20005;-52
2024/04/29 06:18:15;;;;;;;1.83;1.60;;;16.10;58.80;;;10.49;92.25;95799.69;5292156;27;20465;-52
2024/04/29 06:20:41;;;;;;;4.07;1.67;;;16.30;58.30;;;10.70;89.39;95800.59;5280676;26;20014;-50
2024/04/29 06:23:07;;;;;;;1.88;1.33;;;16.60;57.70;;;10.88;88.24;95797.47;5308512;26;20010;-53
2024/04/29 06:25:33;;;;;;;2.22;1.20;;;16.80;57.30;;;11.13;87.54;95803.97;5283659;27;20014;-50
2024/04/29 06:27:59;;;;;;;2.28;1.40;;;17.00;56.80;;;11.37;86.04;95798.94;5281682;27;20013;-54
2024/04/29 06:30:24;;;;;;;1.92;1.48;;;17.20;57.00;;;11.55;83.26;95806.44;5277072;27;20057;-51
2024/04/29 06:32:50;;;;;;;3.55;1.80;;;17.30;55.90;;;11.63;82.00;95804.34;5272613;26;20021;-53
2024/04/29 06:35:16;;;;;;;2.17;1.23;;;17.50;55.50;;;11.72;81.05;95808.06;5280730;27;20006;-50
2024/04/29 06:37:42;;;;;;;1.88;1.13;;;17.60;55.60;;;11.88;80.49;95809.72;5280915;26;20473;-51
2024/04/29 06:40:10;;;;;;;2.85;1.20;;;17.80;54.60;;;11.97;78.48;95815.31;5281865;26;20029;-52
2024/04/29 06:42:37;;;;;;;2.60;1.52;;;17.90;54.20;;;12.09;78.37;95813.16;5283414;27;20018;-50
2024/04/29 06:45:04;;;;;;;1.73;1.27;;;18.10;53.90;;;12.13;77.24;95806.22;5274527;27;20006;-52
2024/04/29 06:47:30;;;;;;;2.00;1.42;;;18.20;53.50;;;12.30;77.32;95802.47;5284830;26;20021;-54
2024/04/29 06:49:56;;;;;;;1.58;1.27;;;18.40;53.20;;;12.49;75.26;95804.28;5274526;26;20551;-51
2024/04/29 06:52:22;;;;;;;3.15;1.30;;;18.60;52.80;;;12.75;74.87;95801.53;5286327;27;20036;-49
2024/04/29 06:54:50;;;;;;;1.52;1.30;;;18.90;52.40;;;12.95;72.79;95806.03;5278317;26;20424;-50
2024/04/29 06:57:16;;;;;;;1.45;1.27;;;19.10;51.90;;;13.16;72.36;95804.03;5289310;27;20348;-50
2024/04/29 06:59:42;;;;;;;3.10;1.42;;;19.40;51.50;;;13.41;71.72;95808.50;5280846;26;20021;-51
2024/04/29 07:02:09;;;;;;;2.28;1.50;;;19.60;51.00;;;13.71;71.66;95812.06;5277271;27;20027;-53
2024/04/29 07:04:35;;;;;;;4.35;2.28;;;19.90;50.60;;;13.92;69.31;95813.53;5285018;27;20013;-50
2024/04/29 07:07:01;;;;;;;4.78;1.50;;;20.10;50.10;;;14.24;68.77;95809.50;5279327;27;20368;-52
2024/04/29 07:09:27;;;;;;;4.35;1.70;;;20.40;49.70;;;14.34;66.73;95817.44;5273307;26;20517;-54
2024/04/29 07:11:53;;;;;;;2.72;1.75;;;20.70;49.20;;;14.61;65.59;95813.47;5274665;27;20494;-52
2024/04/29 07:14:19;;;;;;;4.05;2.10;;;21.10;48.60;;;14.84;64.35;95815.34;5273879;26;20013;-53
2024/04/29 07:16:45;;;;;;;1.95;1.63;;;21.40;48.00;;;15.13;63.14;95820.63;5281342;27;20016;-52
2024/04/29 07:19:11;;;;;;;2.67;1.88;;;21.70;47.40;;;15.48;61.60;95813.19;5282552;27;20021;-48
2024/04/29 07:21:37;;;;;;;3.67;1.90;;;22.10;46.90;;;15.87;61.78;95812.16;5274976;27;20010;-52
2024/04/29 07:24:04;;;;;;;1.83;1.60;;;22.40;46.30;;;15.96;59.48;95818.44;5284431;27;20114;-52
2024/04/29 07:26:31;;;;;;;2.70;1.65;;;22.60;45.90;;;16.03;58.56;95818.06;5280312;27;20009;-54
2024/04/29 07:28:57;;;;;;;4.47;1.70;;;22.70;45.30;;;16.11;59.77;95815.53;5279071;27;20080;-55
2024/04/29 07:31:23;;;;;;;6.75;1.85;;;22.90;44.90;;;16.18;59.18;95810.56;5278745;26;20018;-48
2024/04/29 07:33:49;;;;;;;3.28;1.45;;;23.00;44.50;;;16.26;57.88;95808.28;5290828;27;20020;-52
2024/04/29 07:36:14;;;;;;;1.30;1.20;;;23.20;44.00;;;16.36;57.25;95814.31;5284714;27;20010;-52
2024/04/29 07:38:40;;;;;;;1.85;1.65;;;23.30;43.50;;;16.38;57.00;95820.16;5278842;27;20024;-53
2024/04/29 07:41:06;;;;;;;5.15;2.33;;;23.30;43.20;;;16.29;56.53;95816.56;5273654;27;20017;-52
2024/04/29 07:43:32;;;;;;;1.20;1.10;;;23.30;42.70;;;16.20;57.07;95815.63;5275971;27;20022;-52
2024/04/29 07:45:59;;;;;;;2.25;1.10;;;23.20;42.40;;;16.37;57.07;95817.78;5277762;27;20554;-51
2024/04/29 07:48:25;;;;;;;1.30;1.15;;;23.20;42.40;;;16.38;56.49;95820.16;5287858;27;20543;-56
2024/04/29 07:50:51;;;;;;;3.42;1.02;;;23.10;42.20;;;16.41;55.95;95816.09;5277146;27;20017;-56
2024/04/29 07:53:16;;;;;;;2.20;1.27;;;23.10;42.00;;;16.21;56.35;95811.06;5281660;27;20020;-56
2024/04/29 07:55:42;;;;;;;2.75;1.10;;;23.00;41.80;;;16.01;57.80;95812.97;5280767;27;20558;-54
2024/04/29 07:58:09;;;;;;;1.77;1.20;;;22.90;41.70;;;16.06;57.25;95804.84;5280697;27;20009;-55
2024/04/29 08:00:35;;;;;;;1.77;1.25;;;22.80;41.70;;;15.92;57.32;95804.03;5275538;26;20114;-55
2024/04/29 08:03:00;;;;;;;1.20;1.10;;;22.70;41.50;;;15.75;56.64;95804.53;5276977;27;20412;-51
2024/04/29 08:05:26;;;;;;;1.20;1.00;;;22.60;41.20;;;15.81;57.36;95797.19;5282922;27;20491;-51
2024/04/29 08:07:52;;;;;;;1.58;1.13;;;22.50;41.20;;;15.91;57.43;95803.19;5271976;27;20021;-52
2024/04/29 08:10:19;;;;;;;1.95;1.10;;;22.40;41.20;;;15.98;57.04;95797.44;5271034;26;20021;-48
2024/04/29 08:12:45;;;;;;;2.40;1.30;;;22.50;41.20;;;16.02;57.26;95795.00;5307153;26;20353;-51
2024/04/29 08:15:14;;;;;;;2.05;1.30;;;22.50;41.10;;;15.94;58.10;95807.97;5275226;26;20009;-53
2024/04/29 08:17:40;;;;;;;2.47;1.20;;;22.70;41.10;;;16.31;55.71;95798.25;5286606;27;20018;-50
2024/04/29 08:20:07;;;;;;;1.30;1.20;;;23.10;40.60;;;16.77;55.45;95804.72;5272762;27;20482;-50
2024/04/29 08:22:33;;;;;;;2.08;1.40;;;23.50;40.30;;;17.14;53.93;95806.38;5286403;27;20029;-50
2024/04/29 08:24:58;;;;;;;1.50;1.33;;;23.90;39.90;;;17.45;53.23;95798.47;5277532;27;20020;-52
2024/04/29 08:27:24;;;;;;;2.40;1.60;;;24.30;39.60;;;17.85;53.18;95803.28;5278495;26;20045;-50
2024/04/29 08:29:50;;;;;;;1.60;1.50;;;24.80;39.20;;;18.17;51.56;95804.94;5282083;27;20045;-52
2024/04/29 08:32:16;;;;;;;3.53;1.70;;;25.20;38.60;;;18.26;50.78;95803.88;5275452;27;20011;-55
2024/04/29 08:34:44;;;;;;;1.67;1.58;;;25.60;37.90;;;18.35;50.36;95806.63;5279818;27;20014;-49
2024/04/29 08:37:10;;;;;;;2.95;1.80;;;25.80;37.20;;;18.37;50.66;95787.47;5277874;27;20025;-53
2024/04/29 08:39:36;;;;;;;1.90;1.70;;;26.00;36.70;;;18.58;50.01;95798.50;5285086;26;20049;-52
2024/04/29 08:42:02;;;;;;;2.00;1.77;;;26.00;36.40;;;18.64;50.54;95792.66;5278263;27;20061;-54
2024/04/29 08:44:28;;;;;;;3.90;1.63;;;26.00;36.30;;;18.58;50.98;95793.91;5268580;27;20041;-52
2024/04/29 08:46:54;;;;;;;1.80;1.70;;;25.90;36.30;;;18.25;50.63;95786.13;5281452;27;20336;-49
2024/04/29 08:49:23;;;;;;;1.98;1.85;;;25.70;36.20;;;18.40;52.09;95794.94;5283143;26;20024;-48
2024/04/29 08:51:49;;;;;;;2.53;1.90;;;25.50;36.40;;;18.38;51.59;95789.84;5276442;27;20090;-51
2024/04/29 08:54:15;;;;;;;1.77;1.67;;;25.40;36.60;;;18.50;51.05;95794.66;5276102;27;20053;-51
2024/04/29 08:56:44;;;;;;;4.93;1.90;;;25.40;36.70;;;18.35;52.35;95785.06;5286526;27;20435;-51
2024/04/29 08:59:13;;;;;;;4.30;1.85;;;25.30;36.60;;;18.69;51.68;95778.25;5280399;27;20082;-50
2024/04/29 09:01:39;;;;;;;4.78;1.70;;;25.40;36.70;;;18.88;50.24;95780.72;5271651;27;20009;-51
2024/04/29 09:04:12;;;;;;;3.00;1.70;;;25.40;36.60;;;18.79;49.95;95783.38;5280053;27;20057;-49
2024/04/29 09:06:45;;;;;;;2.70;2.00;;;25.50;36.50;;;18.84;50.88;95779.78;5275712;27;20441;-51
2024/04/29 09:09:13;;;;;;;2.53;2.10;;;25.60;36.30;;;18.79;51.14;95782.59;5273479;27;20020;-51
2024/04/29 09:11:41;;;;;;;3.30;1.95;;;25.70;36.30;;;19.07;48.96;95778.56;5271902;27;20021;-48
2024/04/29 09:14:09;;;;;;;3.78;2.17;;;25.90;35.90;;;18.89;49.06;95780.41;5279772;27;20543;-51
2024/04/29 09:16:35;;;;;;;3.40;1.92;;;26.10;35.50;;;19.24;49.73;95775.13;5278791;26;20007;-52
2024/04/29 09:19:01;;;;;;;1.80;1.63;;;26.30;35.50;;;19.46;49.13;95773.38;5280991;27;20009;-55
2024/04/29 09:21:31;;;;;;;2.15;1.85;;;26.40;35.20;;;20.01;47.57;95783.59;5283489;26;20006;-55
2024/04/29 09:23:57;;;;;;;8.52;2.10;;;26.70;35.20;;;19.91;47.45;95773.13;5276486;27;20010;-53
2024/04/29 09:26:24;;;;;;;3.40;2.28;;;26.90;34.60;;;20.25;47.50;95781.19;5284220;26;20030;-54
2024/04/29 09:28:55;;;;;;;3.70;1.83;;;27.10;34.60;;;20.33;46.65;95783.06;5280161;27;20010;-54
2024/04/29 09:31:21;;;;;;;6.35;1.92;;;27.30;34.90;;;20.34;46.44;95790.06;5283404;27;20085;-53
2024/04/29 09:33:49;;;;;;;2.42;2.00;;;27.50;34.00;;;20.20;45.23;95784.03;5285103;27;20010;-51
2024/04/29 09:36:17;;;;;;;2.55;1.90;;;27.60;33.30;;;20.49;45.90;95790.66;5276016;27;20021;-56
2024/04/29 09:38:43;;;;;;;2.38;1.90;;;27.70;33.10;;;20.45;46.58;95787.03;5310188;26;20066;-52
2024/04/29 09:41:09;;;;;;;6.72;1.90;;;27.80;33.10;;;20.35;45.70;95782.75;5278415;27;20014;-52
2024/04/29 09:43:39;;;;;;;2.55;2.10;;;27.90;32.90;;;20.39;44.65;95780.97;5276641;27;20087;-52
2024/04/29 09:46:24;;;;;;;2.05;1.90;;;28.00;32.70;;;20.10;47.00;95779.78;5279917;27;20020;-49
2024/04/29 09:48:53;;;;;;;2.65;1.90;;;28.00;32.30;;;20.04;47.35;95785.66;5284794;27;20024;-52
2024/04/29 09:51:27;;;;;;;4.68;2.30;;;28.00;32.20;;;19.46;47.90;95781.47;5283727;26;20242;-56
2024/04/29 09:53:54;;;;;;;2.13;1.90;;;28.00;32.00;;;19.42;47.19;95778.63;5283545;27;20010;-52
2024/04/29 09:56:20;;;;;;;2.13;1.92;;;28.00;31.90;;;19.88;46.88;95772.63;5278249;27;20023;-55
2024/04/29 09:58:52;;;;;;;6.13;2.08;;;27.90;31.90;;;20.27;46.20;95776.22;5270244;27;20014;-56
2024/04/29 10:01:20;;;;;;;3.10;2.00;;;28.00;32.10;;;20.43;46.05;95767.59;5273836;26;20013;-51
2024/04/29 10:03:51;;;;;;;2.50;2.30;;;28.00;32.00;;;20.63;45.88;95768.84;5271118;27;20073;-55
2024/04/29 10:06:19;;;;;;;2.63;2.15;;;28.00;32.00;;;20.78;45.22;95771.03;5286137;27;20016;-55
2024/04/29 10:09:04;;;;;;;2.65;2.17;;;28.10;32.00;;;21.00;43.92;95772.69;5271997;27;20017;-57
2024/04/29 10:11:30;;;;;;;3.60;2.17;;;28.30;32.20;;;20.97;44.25;95759.78;5335942;21;20371;-50
2024/04/29 10:14:02;;;;;;;5.13;2.20;;;28.40;31.60;;;20.95;43.90;95770.94;5317188;26;20005;-50
2024/04/29 10:16:30;;;;;;;6.35;2.20;;;28.60;31.40;;;21.21;44.37;95759.16;5327302;26;20009;-52
2024/04/29 10:18:59;;;;;;;3.75;2.10;;;28.60;31.30;;;21.37;43.73;95748.56;5317071;26;20021;-52